Thunder radar more information blitzortung!


Radar de pluja more information rain snow radar


Visita la nostra xarxa de llocs de meteo:

Template documentation
and downloads

And another site



No particular awareness of the weather is required.    There are no Weather-warnings

Pagina Historial Weather Underground text

Diari Resum Setembre 12, 2017 Unitats:  Tant    Imperial   Mètric
« Previous Dia
SegĂźent Dia »
Diari Setmana Mensual Anual Personalitzada
  Maxima: Minima: Media:
Temperatura: 82.4 °F /  28.0 °C 62.2 °F /  16.8 °C 70.9 °F /  21.6 °C
Punt de rosada: 58.3 °F /  14.6 °C 47.7 °F /  8.7 °C 53.6 °F /  12 °C
Humitat: 83 % 33 % 57 %
Wind Speed: 10.4 mph /  16.7 km/h - 3 mph /  4.9 km/h
RĂ fegues de vent: 10.4 mph /  16.7 km/h - -
Vent:- - SSW
Pression baro: 30.2 in /  1020.9 hPa 29.8 in /  1008.0 hPa -
Precipitacions: 0 in /  0.0 mm    
Historical Graphs
 
 
Dades de taula per Setembre 12, 2017
Temps Temperatura Punt de rosada Pression baro Vent Wind Speed RĂ fegues de vent Humitat Rainfall Rate (Hourly)
00:00 63.9 °F /  17.7 °C 58.3 °F /  14.6 °C 29.9 in /  1011.7 hPa Calm   2 mph /  3.2 km/h 82 % 0 in /  0.0 mm
00:03 82.4 °F /  28.0 °C 51.3 °F /  10.7 °C 29.8 in /  1008.0 hPa SW 7.4 mph /  11.9 km/h 7.4 mph /  11.9 km/h 34 % 0 in /  0.0 mm
00:08 82.4 °F /  28.0 °C 51.3 °F /  10.7 °C 29.8 in /  1008.0 hPa SW 7.4 mph /  11.9 km/h 7.4 mph /  11.9 km/h 34 % 0 in /  0.0 mm
00:10 63.3 °F /  17.4 °C 57 °F /  13.9 °C 29.8 in /  1010.7 hPa Calm   2 mph /  3.2 km/h 80 % 0 in /  0.0 mm
00:13 82.4 °F /  28.0 °C 51.3 °F /  10.7 °C 29.8 in /  1008.0 hPa SW 7.4 mph /  11.9 km/h 7.4 mph /  11.9 km/h 34 % 0 in /  0.0 mm
00:20 63.5 °F /  17.5 °C 57.6 °F /  14.2 °C 29.8 in /  1010.7 hPa West 1 mph /  1.6 km/h 2 mph /  3.2 km/h 81 % 0 in /  0.0 mm
00:30 63 °F /  17.2 °C 56.7 °F /  13.7 °C 29.9 in /  1011.7 hPa West 2 mph /  3.2 km/h 2 mph /  3.2 km/h 80 % 0 in /  0.0 mm
00:40 62.8 °F /  17.1 °C 56.1 °F /  13.4 °C 29.9 in /  1011.7 hPa West 2 mph /  3.2 km/h 2 mph /  3.2 km/h 79 % 0 in /  0.0 mm
00:50 62.6 °F /  17.0 °C 55.2 °F /  12.9 °C 29.9 in /  1011.7 hPa West 1 mph /  1.6 km/h 1 mph /  1.6 km/h 77 % 0 in /  0.0 mm
01:00 63.1 °F /  17.3 °C 55 °F /  12.8 °C 29.9 in /  1011.7 hPa West 1 mph /  1.6 km/h 2 mph /  3.2 km/h 75 % 0 in /  0.0 mm
01:10 63.7 °F /  17.6 °C 54.5 °F /  12.5 °C 29.9 in /  1011.7 hPa West 3 mph /  4.8 km/h 4 mph /  6.4 km/h 72 % 0 in /  0.0 mm
01:20 63.9 °F /  17.7 °C 54 °F /  12.2 °C 29.9 in /  1011.7 hPa West 3 mph /  4.8 km/h 3 mph /  4.8 km/h 70 % 0 in /  0.0 mm
01:30 63.7 °F /  17.6 °C 53.2 °F /  11.8 °C 29.9 in /  1011.7 hPa West 1 mph /  1.6 km/h 2 mph /  3.2 km/h 69 % 0 in /  0.0 mm
01:40 63.5 °F /  17.5 °C 52.7 °F /  11.5 °C 29.8 in /  1010.7 hPa WSW 1 mph /  1.6 km/h 3 mph /  4.8 km/h 68 % 0 in /  0.0 mm
01:50 63.5 °F /  17.5 °C 52.3 °F /  11.3 °C 29.8 in /  1010.7 hPa WSW 1 mph /  1.6 km/h 2 mph /  3.2 km/h 67 % 0 in /  0.0 mm
02:00 63.3 °F /  17.4 °C 52.2 °F /  11.2 °C 29.9 in /  1011.7 hPa West 1 mph /  1.6 km/h 3 mph /  4.8 km/h 67 % 0 in /  0.0 mm
02:10 63.5 °F /  17.5 °C 52 °F /  11.1 °C 29.8 in /  1010.7 hPa West 1 mph /  1.6 km/h 2 mph /  3.2 km/h 66 % 0 in /  0.0 mm
02:20 63.5 °F /  17.5 °C 52 °F /  11.1 °C 29.8 in /  1010.7 hPa West 1 mph /  1.6 km/h 2 mph /  3.2 km/h 66 % 0 in /  0.0 mm
02:30 63.1 °F /  17.3 °C 51.3 °F /  10.7 °C 29.9 in /  1011.7 hPa Calm   1 mph /  1.6 km/h 65 % 0 in /  0.0 mm
02:40 63.3 °F /  17.4 °C 51.3 °F /  10.7 °C 29.9 in /  1011.7 hPa WSW 1 mph /  1.6 km/h 2 mph /  3.2 km/h 65 % 0 in /  0.0 mm
02:50 63.7 °F /  17.6 °C 51.3 °F /  10.7 °C 29.9 in /  1011.7 hPa Calm   2 mph /  3.2 km/h 64 % 0 in /  0.0 mm
03:00 63.3 °F /  17.4 °C 50.9 °F /  10.5 °C 29.9 in /  1012.8 hPa Calm   2 mph /  3.2 km/h 64 % 0 in /  0.0 mm
03:10 63.3 °F /  17.4 °C 50.9 °F /  10.5 °C 29.9 in /  1012.8 hPa SW 1 mph /  1.6 km/h 2 mph /  3.2 km/h 64 % 0 in /  0.0 mm
03:20 62.8 °F /  17.1 °C 50.4 °F /  10.2 °C 29.9 in /  1012.8 hPa SW 1 mph /  1.6 km/h 2 mph /  3.2 km/h 64 % 0 in /  0.0 mm
03:30 63.3 °F /  17.4 °C 50.9 °F /  10.5 °C 29.9 in /  1013.8 hPa WSW 1 mph /  1.6 km/h 2 mph /  3.2 km/h 64 % 0 in /  0.0 mm
03:40 63.7 °F /  17.6 °C 51.3 °F /  10.7 °C 29.9 in /  1013.8 hPa SW 1 mph /  1.6 km/h 2 mph /  3.2 km/h 64 % 0 in /  0.0 mm
03:50 64.2 °F /  17.9 °C 51.8 °F /  11.0 °C 29.9 in /  1013.8 hPa WSW 1 mph /  1.6 km/h 2 mph /  3.2 km/h 64 % 0 in /  0.0 mm
04:00 64.6 °F /  18.1 °C 51.3 °F /  10.7 °C 29.9 in /  1013.8 hPa Calm   2 mph /  3.2 km/h 62 % 0 in /  0.0 mm
04:10 64.9 °F /  18.3 °C 51.6 °F /  10.9 °C 29.9 in /  1013.8 hPa SW 1 mph /  1.6 km/h 2 mph /  3.2 km/h 62 % 0 in /  0.0 mm
04:20 65.3 °F /  18.5 °C 52 °F /  11.1 °C 29.9 in /  1013.8 hPa SW 1 mph /  1.6 km/h 1 mph /  1.6 km/h 62 % 0 in /  0.0 mm
04:30 65.3 °F /  18.5 °C 52 °F /  11.1 °C 29.9 in /  1013.8 hPa SW 3 mph /  4.8 km/h 4 mph /  6.4 km/h 62 % 0 in /  0.0 mm
04:40 65.8 °F /  18.8 °C 52 °F /  11.1 °C 29.9 in /  1013.8 hPa SW 2 mph /  3.2 km/h 3 mph /  4.8 km/h 61 % 0 in /  0.0 mm
04:50 66.6 °F /  19.2 °C 51.8 °F /  11.0 °C 29.9 in /  1013.8 hPa SW 1 mph /  1.6 km/h 2 mph /  3.2 km/h 59 % 0 in /  0.0 mm
05:00 66.7 °F /  19.3 °C 52 °F /  11.1 °C 29.9 in /  1013.8 hPa SW 1 mph /  1.6 km/h 2 mph /  3.2 km/h 59 % 0 in /  0.0 mm
05:10 68.2 °F /  20.1 °C 52.3 °F /  11.3 °C 29.9 in /  1013.8 hPa SW 2 mph /  3.2 km/h 3 mph /  4.8 km/h 57 % 0 in /  0.0 mm
05:20 68 °F /  20.0 °C 51.6 °F /  10.9 °C 29.9 in /  1013.8 hPa SW 2 mph /  3.2 km/h 3 mph /  4.8 km/h 56 % 0 in /  0.0 mm
05:30 68 °F /  20.0 °C 51.3 °F /  10.7 °C 29.9 in /  1013.8 hPa WSW 2 mph /  3.2 km/h 4 mph /  6.4 km/h 55 % 0 in /  0.0 mm
10:33 68.7 °F /  20.4 °C 52.3 °F /  11.3 °C 29.9 in /  1013.8 hPa WNW 6.9 mph /  11.1 km/h 6.9 mph /  11.1 km/h 56 % 0 in /  0.0 mm
10:34 68.7 °F /  20.4 °C 52.3 °F /  11.3 °C 29.9 in /  1013.8 hPa WSW 6.9 mph /  11.1 km/h 6.9 mph /  11.1 km/h 56 % 0 in /  0.0 mm
10:39 68.7 °F /  20.4 °C 52 °F /  11.1 °C 30 in /  1014.8 hPa West 4.6 mph /  7.4 km/h 4.6 mph /  7.4 km/h 55 % 0 in /  0.0 mm
10:44 69.6 °F /  20.9 °C 52.7 °F /  11.5 °C 30 in /  1014.8 hPa WSW 2 mph /  3.2 km/h 2 mph /  3.2 km/h 55 % 0 in /  0.0 mm
10:49 69.6 °F /  20.9 °C 52.7 °F /  11.5 °C 30 in /  1014.8 hPa SW 5.8 mph /  9.3 km/h 5.8 mph /  9.3 km/h 55 % 0 in /  0.0 mm
10:54 69.1 °F /  20.6 °C 51.6 °F /  10.9 °C 30 in /  1014.8 hPa West 5.8 mph /  9.3 km/h 5.8 mph /  9.3 km/h 54 % 0 in /  0.0 mm
10:59 70.7 °F /  21.5 °C 52.2 °F /  11.2 °C 30 in /  1014.8 hPa SW 2.3 mph /  3.7 km/h 2.3 mph /  3.7 km/h 52 % 0 in /  0.0 mm
11:04 72 °F /  22.2 °C 54 °F /  12.2 °C 30 in /  1014.8 hPa West 6.2 mph /  10.0 km/h 6.2 mph /  10.0 km/h 53 % 0 in /  0.0 mm
11:09 72.1 °F /  22.3 °C 53.4 °F /  11.9 °C 30 in /  1014.8 hPa NNW 3.6 mph /  5.8 km/h 3.6 mph /  5.8 km/h 52 % 0 in /  0.0 mm
11:14 70.9 °F /  21.6 °C 51.8 °F /  11.0 °C 30 in /  1014.8 hPa West 4.6 mph /  7.4 km/h 4.6 mph /  7.4 km/h 51 % 0 in /  0.0 mm
11:19 71.4 °F /  21.9 °C 51.8 °F /  11.0 °C 30 in /  1014.8 hPa NE 3.5 mph /  5.6 km/h 3.5 mph /  5.6 km/h 50 % 0 in /  0.0 mm
11:24 72.1 °F /  22.3 °C 52.5 °F /  11.4 °C 30 in /  1015.8 hPa WSW 6 mph /  9.7 km/h 6 mph /  9.7 km/h 50 % 0 in /  0.0 mm
11:29 72.1 °F /  22.3 °C 52.5 °F /  11.4 °C 30 in /  1015.8 hPa NW 8.1 mph /  13.0 km/h 8.1 mph /  13.0 km/h 50 % 0 in /  0.0 mm
11:34 72.5 °F /  22.5 °C 52.2 °F /  11.2 °C 30 in /  1015.8 hPa ESE 4.6 mph /  7.4 km/h 4.6 mph /  7.4 km/h 49 % 0 in /  0.0 mm
11:39 73 °F /  22.8 °C 52.7 °F /  11.5 °C 30 in /  1015.8 hPa WSW 3.5 mph /  5.6 km/h 3.5 mph /  5.6 km/h 49 % 0 in /  0.0 mm
11:44 73.2 °F /  22.9 °C 52.9 °F /  11.6 °C 30 in /  1015.8 hPa WSW 3.5 mph /  5.6 km/h 3.5 mph /  5.6 km/h 49 % 0 in /  0.0 mm
11:49 73.8 °F /  23.2 °C 52.9 °F /  11.6 °C 30 in /  1015.8 hPa SW 2.3 mph /  3.7 km/h 2.3 mph /  3.7 km/h 48 % 0 in /  0.0 mm
11:54 74.3 °F /  23.5 °C 53.2 °F /  11.8 °C 30 in /  1015.8 hPa WSW 4.6 mph /  7.4 km/h 4.6 mph /  7.4 km/h 48 % 0 in /  0.0 mm
11:59 74.3 °F /  23.5 °C 52.9 °F /  11.6 °C 30 in /  1015.8 hPa NNW 3.5 mph /  5.6 km/h 3.5 mph /  5.6 km/h 47 % 0 in /  0.0 mm
12:04 73.6 °F /  23.1 °C 52.7 °F /  11.5 °C 30 in /  1015.8 hPa WSW 4.7 mph /  7.6 km/h 4.7 mph /  7.6 km/h 48 % 0 in /  0.0 mm
12:09 73.8 °F /  23.2 °C 52.3 °F /  11.3 °C 30 in /  1015.8 hPa South 3.5 mph /  5.6 km/h 3.5 mph /  5.6 km/h 47 % 0 in /  0.0 mm
12:14 74.3 °F /  23.5 °C 52.9 °F /  11.6 °C 30 in /  1015.8 hPa WSW 3.5 mph /  5.6 km/h 3.5 mph /  5.6 km/h 47 % 0 in /  0.0 mm
12:19 74.3 °F /  23.5 °C 52.9 °F /  11.6 °C 30 in /  1015.8 hPa West 3.5 mph /  5.6 km/h 3.5 mph /  5.6 km/h 47 % 0 in /  0.0 mm
12:24 74.7 °F /  23.7 °C 53.1 °F /  11.7 °C 30 in /  1015.8 hPa SSW 7.4 mph /  11.9 km/h 7.4 mph /  11.9 km/h 47 % 0 in /  0.0 mm
12:29 74.1 °F /  23.4 °C 52 °F /  11.1 °C 30 in /  1015.8 hPa WSW 4.6 mph /  7.4 km/h 4.6 mph /  7.4 km/h 46 % 0 in /  0.0 mm
12:34 74.1 °F /  23.4 °C 52 °F /  11.1 °C 30 in /  1015.8 hPa WSW 5.8 mph /  9.3 km/h 5.8 mph /  9.3 km/h 46 % 0 in /  0.0 mm
12:39 75.2 °F /  24.0 °C 52.3 °F /  11.3 °C 30 in /  1015.8 hPa SSW 4.7 mph /  7.6 km/h 4.7 mph /  7.6 km/h 45 % 0 in /  0.0 mm
12:44 75.7 °F /  24.3 °C 52.9 °F /  11.6 °C 30 in /  1015.8 hPa WNW 3.6 mph /  5.8 km/h 3.8 mph /  6.1 km/h 45 % 0 in /  0.0 mm
12:49 76.3 °F /  24.6 °C 52.9 °F /  11.6 °C 30 in /  1015.8 hPa WSW 2.9 mph /  4.7 km/h 2.9 mph /  4.7 km/h 44 % 0 in /  0.0 mm
12:54 76.8 °F /  24.9 °C 53.2 °F /  11.8 °C 30 in /  1014.8 hPa WSW 3.5 mph /  5.6 km/h 3.6 mph /  5.8 km/h 44 % 0 in /  0.0 mm
12:59 76.5 °F /  24.7 °C 52.3 °F /  11.3 °C 30 in /  1014.8 hPa SW 4.6 mph /  7.4 km/h 4.6 mph /  7.4 km/h 43 % 0 in /  0.0 mm
13:04 76.6 °F /  24.8 °C 52.5 °F /  11.4 °C 30 in /  1014.8 hPa West 5.8 mph /  9.3 km/h 5.8 mph /  9.3 km/h 43 % 0 in /  0.0 mm
13:09 76.3 °F /  24.6 °C 52.2 °F /  11.2 °C 30 in /  1015.8 hPa WSW 4.6 mph /  7.4 km/h 4.6 mph /  7.4 km/h 43 % 0 in /  0.0 mm
13:14 75.9 °F /  24.4 °C 51.3 °F /  10.7 °C 30 in /  1015.8 hPa West 5.8 mph /  9.3 km/h 5.8 mph /  9.3 km/h 42 % 0 in /  0.0 mm
13:19 76.1 °F /  24.5 °C 51.3 °F /  10.7 °C 30 in /  1015.8 hPa SW 4.6 mph /  7.4 km/h 4.6 mph /  7.4 km/h 42 % 0 in /  0.0 mm
13:24 76.1 °F /  24.5 °C 50.7 °F /  10.4 °C 30 in /  1014.8 hPa SSE 4.6 mph /  7.4 km/h 4.6 mph /  7.4 km/h 41 % 0 in /  0.0 mm
13:29 76.6 °F /  24.8 °C 51.3 °F /  10.7 °C 30 in /  1014.8 hPa SW 3.5 mph /  5.6 km/h 3.5 mph /  5.6 km/h 41 % 0 in /  0.0 mm
13:34 77.2 °F /  25.1 °C 51.1 °F /  10.6 °C 30 in /  1014.8 hPa West 10.4 mph /  16.7 km/h 10.4 mph /  16.7 km/h 40 % 0 in /  0.0 mm
13:39 78.1 °F /  25.6 °C 51.8 °F /  11.0 °C 30 in /  1014.8 hPa WSW 6.9 mph /  11.1 km/h 6.9 mph /  11.1 km/h 40 % 0 in /  0.0 mm
13:44 77.7 °F /  25.4 °C 50.7 °F /  10.4 °C 30 in /  1014.8 hPa SW 5.8 mph /  9.3 km/h 5.8 mph /  9.3 km/h 39 % 0 in /  0.0 mm
13:49 78.1 °F /  25.6 °C 51.1 °F /  10.6 °C 30 in /  1014.8 hPa WSW 3.3 mph /  5.3 km/h 3.3 mph /  5.3 km/h 39 % 0 in /  0.0 mm
13:54 77.9 °F /  25.5 °C 50.9 °F /  10.5 °C 30 in /  1014.8 hPa North 3.5 mph /  5.6 km/h 3.5 mph /  5.6 km/h 39 % 0 in /  0.0 mm
13:59 78.3 °F /  25.7 °C 51.3 °F /  10.7 °C 30 in /  1014.8 hPa WSW 3.1 mph /  5.0 km/h 3.1 mph /  5.0 km/h 39 % 0 in /  0.0 mm
14:04 79 °F /  26.1 °C 51.3 °F /  10.7 °C 30 in /  1014.8 hPa South 6.9 mph /  11.1 km/h 6.9 mph /  11.1 km/h 38 % 0 in /  0.0 mm
14:09 78.1 °F /  25.6 °C 50.4 °F /  10.2 °C 30 in /  1014.8 hPa WSW 6.9 mph /  11.1 km/h 6.9 mph /  11.1 km/h 38 % 0 in /  0.0 mm
14:14 77.5 °F /  25.3 °C 49.8 °F /  9.9 °C 30 in /  1014.8 hPa SW 4.6 mph /  7.4 km/h 4.6 mph /  7.4 km/h 38 % 0 in /  0.0 mm
14:19 77.5 °F /  25.3 °C 49.8 °F /  9.9 °C 30 in /  1014.8 hPa West 2.3 mph /  3.7 km/h 2.3 mph /  3.7 km/h 38 % 0 in /  0.0 mm
14:24 77.2 °F /  25.1 °C 49.6 °F /  9.8 °C 30 in /  1014.8 hPa SW 3.5 mph /  5.6 km/h 3.5 mph /  5.6 km/h 38 % 0 in /  0.0 mm
14:29 77.5 °F /  25.3 °C 49.3 °F /  9.6 °C 30 in /  1014.8 hPa West 2.9 mph /  4.7 km/h 3.3 mph /  5.3 km/h 37 % 0 in /  0.0 mm
14:34 77 °F /  25.0 °C 49.5 °F /  9.7 °C 30 in /  1014.8 hPa WSW 5.8 mph /  9.3 km/h 5.8 mph /  9.3 km/h 38 % 0 in /  0.0 mm
14:39 77.4 °F /  25.2 °C 48.9 °F /  9.4 °C 30 in /  1014.8 hPa West 3.5 mph /  5.6 km/h 3.5 mph /  5.6 km/h 37 % 0 in /  0.0 mm
14:40 77.5 °F /  25.3 °C 49.3 °F /  9.6 °C 30 in /  1014.8 hPa WSW 3.5 mph /  5.6 km/h 3.5 mph /  5.6 km/h 37 % 0 in /  0.0 mm
14:45 77.9 °F /  25.5 °C 49.5 °F /  9.7 °C 30 in /  1014.8 hPa SW 5.4 mph /  8.7 km/h 5.4 mph /  8.7 km/h 37 % 0 in /  0.0 mm
14:50 77.7 °F /  25.4 °C 49.5 °F /  9.7 °C 30 in /  1014.8 hPa West 3.5 mph /  5.6 km/h 3.5 mph /  5.6 km/h 37 % 0 in /  0.0 mm
14:55 77.5 °F /  25.3 °C 48.6 °F /  9.2 °C 30 in /  1014.8 hPa South 5.6 mph /  9.0 km/h 5.6 mph /  9.0 km/h 36 % 0 in /  0.0 mm
15:00 78.1 °F /  25.6 °C 49.6 °F /  9.8 °C 30 in /  1014.8 hPa SSE 3.5 mph /  5.6 km/h 3.5 mph /  5.6 km/h 37 % 0 in /  0.0 mm
15:05 78.6 °F /  25.9 °C 49.5 °F /  9.7 °C 30 in /  1014.8 hPa West 5.8 mph /  9.3 km/h 5.8 mph /  9.3 km/h 36 % 0 in /  0.0 mm
15:10 79.5 °F /  26.4 °C 50.2 °F /  10.1 °C 30 in /  1014.8 hPa WSW 4 mph /  6.4 km/h 4 mph /  6.4 km/h 36 % 0 in /  0.0 mm
15:15 79.7 °F /  26.5 °C 50.4 °F /  10.2 °C 30 in /  1014.8 hPa West 4.6 mph /  7.4 km/h 4.6 mph /  7.4 km/h 36 % 0 in /  0.0 mm
15:20 79.7 °F /  26.5 °C 50.4 °F /  10.2 °C 30 in /  1014.8 hPa SSW 3.5 mph /  5.6 km/h 3.5 mph /  5.6 km/h 36 % 0 in /  0.0 mm
15:25 79.7 °F /  26.5 °C 50.4 °F /  10.2 °C 30 in /  1014.8 hPa WSW 5.9 mph /  9.5 km/h 5.9 mph /  9.5 km/h 36 % 0 in /  0.0 mm
15:30 79.3 °F /  26.3 °C 48.6 °F /  9.2 °C 30 in /  1014.8 hPa WSW 5.8 mph /  9.3 km/h 5.8 mph /  9.3 km/h 34 % 0 in /  0.0 mm
15:35 79.2 °F /  26.2 °C 47.7 °F /  8.7 °C 30 in /  1014.8 hPa SSW 4.6 mph /  7.4 km/h 4.6 mph /  7.4 km/h 33 % 0 in /  0.0 mm
15:40 79.2 °F /  26.2 °C 49.1 °F /  9.5 °C 30 in /  1014.8 hPa SW 3.5 mph /  5.6 km/h 3.5 mph /  5.6 km/h 35 % 0 in /  0.0 mm
15:45 79.5 °F /  26.4 °C 49.5 °F /  9.7 °C 30 in /  1014.8 hPa West 4 mph /  6.4 km/h 4 mph /  6.4 km/h 35 % 0 in /  0.0 mm
15:50 79.7 °F /  26.5 °C 49.6 °F /  9.8 °C 29.9 in /  1013.8 hPa West 4.6 mph /  7.4 km/h 4.6 mph /  7.4 km/h 35 % 0 in /  0.0 mm
15:55 79.3 °F /  26.3 °C 49.3 °F /  9.6 °C 29.9 in /  1013.8 hPa WNW 2.4 mph /  3.9 km/h 2.4 mph /  3.9 km/h 35 % 0 in /  0.0 mm
16:00 80.1 °F /  26.7 °C 49.8 °F /  9.9 °C 29.9 in /  1013.8 hPa WNW 6 mph /  9.7 km/h 6 mph /  9.7 km/h 35 % 0 in /  0.0 mm
16:05 80.6 °F /  27.0 °C 48.7 °F /  9.3 °C 29.9 in /  1013.8 hPa West 4.6 mph /  7.4 km/h 4.6 mph /  7.4 km/h 33 % 0 in /  0.0 mm
16:10 80.1 °F /  26.7 °C 48.4 °F /  9.1 °C 29.9 in /  1013.8 hPa WNW 3.5 mph /  5.6 km/h 3.5 mph /  5.6 km/h 33 % 0 in /  0.0 mm
16:15 80.1 °F /  26.7 °C 49.3 °F /  9.6 °C 29.9 in /  1013.8 hPa NNW 3.5 mph /  5.6 km/h 3.5 mph /  5.6 km/h 34 % 0 in /  0.0 mm
16:20 79.7 °F /  26.5 °C 49.6 °F /  9.8 °C 30 in /  1014.8 hPa North 3.5 mph /  5.6 km/h 3.5 mph /  5.6 km/h 35 % 0 in /  0.0 mm
16:25 77.9 °F /  25.5 °C 50.9 °F /  10.5 °C 30 in /  1014.8 hPa North 4.6 mph /  7.4 km/h 4.6 mph /  7.4 km/h 39 % 0 in /  0.0 mm
16:30 77.7 °F /  25.4 °C 51.4 °F /  10.8 °C 30 in /  1014.8 hPa NW 5.8 mph /  9.3 km/h 5.8 mph /  9.3 km/h 40 % 0 in /  0.0 mm
16:35 77 °F /  25.0 °C 51.4 °F /  10.8 °C 30 in /  1014.8 hPa NNE 6.9 mph /  11.1 km/h 6.9 mph /  11.1 km/h 41 % 0 in /  0.0 mm
16:40 76.8 °F /  24.9 °C 52.5 °F /  11.4 °C 30 in /  1014.8 hPa ENE 10.4 mph /  16.7 km/h 10.4 mph /  16.7 km/h 43 % 0 in /  0.0 mm
16:45 75.6 °F /  24.2 °C 53.2 °F /  11.8 °C 30 in /  1014.8 hPa East 6.9 mph /  11.1 km/h 6.9 mph /  11.1 km/h 46 % 0 in /  0.0 mm
16:50 75.7 °F /  24.3 °C 54.1 °F /  12.3 °C 30 in /  1014.8 hPa SSE 6.9 mph /  11.1 km/h 6.9 mph /  11.1 km/h 47 % 0 in /  0.0 mm
16:51 75.7 °F /  24.3 °C 54.1 °F /  12.3 °C 30 in /  1014.8 hPa ESE 5.8 mph /  9.3 km/h 5.8 mph /  9.3 km/h 47 % 0 in /  0.0 mm
16:56 75.7 °F /  24.3 °C 54.1 °F /  12.3 °C 30 in /  1014.8 hPa East 3.5 mph /  5.6 km/h 3.5 mph /  5.6 km/h 47 % 0 in /  0.0 mm
17:01 75.6 °F /  24.2 °C 55 °F /  12.8 °C 30 in /  1014.8 hPa ESE 8.1 mph /  13.0 km/h 8.1 mph /  13.0 km/h 49 % 0 in /  0.0 mm
17:06 76.3 °F /  24.6 °C 55.8 °F /  13.2 °C 30 in /  1014.8 hPa ESE 3.5 mph /  5.6 km/h 3.5 mph /  5.6 km/h 49 % 0 in /  0.0 mm
17:11 75.2 °F /  24.0 °C 55.2 °F /  12.9 °C 30 in /  1014.8 hPa ESE 10.4 mph /  16.7 km/h 10.4 mph /  16.7 km/h 50 % 0 in /  0.0 mm
17:16 75 °F /  23.9 °C 55 °F /  12.8 °C 30 in /  1014.8 hPa East 8.1 mph /  13.0 km/h 8.1 mph /  13.0 km/h 50 % 0 in /  0.0 mm
17:21 76.1 °F /  24.5 °C 56.1 °F /  13.4 °C 30 in /  1015.8 hPa SSW 4.6 mph /  7.4 km/h 4.6 mph /  7.4 km/h 50 % 0 in /  0.0 mm
17:26 77 °F /  25.0 °C 55.8 °F /  13.2 °C 30 in /  1015.8 hPa SSW 5.8 mph /  9.3 km/h 5.8 mph /  9.3 km/h 48 % 0 in /  0.0 mm
17:31 77.2 °F /  25.1 °C 55.4 °F /  13.0 °C 30 in /  1015.8 hPa SSW 3.6 mph /  5.8 km/h 3.6 mph /  5.8 km/h 47 % 0 in /  0.0 mm
17:36 77 °F /  25.0 °C 55.2 °F /  12.9 °C 30 in /  1015.8 hPa SSW 7.8 mph /  12.6 km/h 7.8 mph /  12.6 km/h 47 % 0 in /  0.0 mm
17:41 77.5 °F /  25.3 °C 55.8 °F /  13.2 °C 30 in /  1015.8 hPa NNW 2.3 mph /  3.7 km/h 2.3 mph /  3.7 km/h 47 % 0 in /  0.0 mm
17:46 77.7 °F /  25.4 °C 55.9 °F /  13.3 °C 30 in /  1015.8 hPa South 4 mph /  6.4 km/h 4 mph /  6.4 km/h 47 % 0 in /  0.0 mm
17:51 77.5 °F /  25.3 °C 55.8 °F /  13.2 °C 30 in /  1015.8 hPa SSW 9.2 mph /  14.8 km/h 9.2 mph /  14.8 km/h 47 % 0 in /  0.0 mm
17:56 78.1 °F /  25.6 °C 56.1 °F /  13.4 °C 30 in /  1015.8 hPa SW 3.6 mph /  5.8 km/h 3.6 mph /  5.8 km/h 47 % 0 in /  0.0 mm
18:01 78.4 °F /  25.8 °C 56.5 °F /  13.6 °C 30 in /  1015.8 hPa SW 3.5 mph /  5.6 km/h 3.5 mph /  5.6 km/h 47 % 0 in /  0.0 mm
18:06 78.3 °F /  25.7 °C 55.8 °F /  13.2 °C 30 in /  1015.8 hPa West 5.8 mph /  9.3 km/h 5.8 mph /  9.3 km/h 46 % 0 in /  0.0 mm
18:11 78.4 °F /  25.8 °C 55.9 °F /  13.3 °C 30 in /  1015.8 hPa South 4.6 mph /  7.4 km/h 4.6 mph /  7.4 km/h 46 % 0 in /  0.0 mm
18:16 77.5 °F /  25.3 °C 55 °F /  12.8 °C 30 in /  1015.8 hPa SW 6.2 mph /  10.0 km/h 6.2 mph /  10.0 km/h 46 % 0 in /  0.0 mm
18:21 77.5 °F /  25.3 °C 55 °F /  12.8 °C 30 in /  1015.8 hPa WSW 5.4 mph /  8.7 km/h 5.4 mph /  8.7 km/h 46 % 0 in /  0.0 mm
18:26 76.3 °F /  24.6 °C 54 °F /  12.2 °C 30 in /  1015.8 hPa South 6.9 mph /  11.1 km/h 6.9 mph /  11.1 km/h 46 % 0 in /  0.0 mm
18:31 76.1 °F /  24.5 °C 54.3 °F /  12.4 °C 30 in /  1015.8 hPa SSW 5.8 mph /  9.3 km/h 5.8 mph /  9.3 km/h 47 % 0 in /  0.0 mm
18:36 75.7 °F /  24.3 °C 54.1 °F /  12.3 °C 30 in /  1015.8 hPa SW 7.4 mph /  11.9 km/h 7.4 mph /  11.9 km/h 47 % 0 in /  0.0 mm
18:41 75.9 °F /  24.4 °C 54.1 °F /  12.3 °C 30 in /  1015.8 hPa WSW 6.9 mph /  11.1 km/h 6.9 mph /  11.1 km/h 47 % 0 in /  0.0 mm
18:46 75.7 °F /  24.3 °C 54.1 °F /  12.3 °C 30 in /  1015.8 hPa WSW 5.4 mph /  8.7 km/h 5.4 mph /  8.7 km/h 47 % 0 in /  0.0 mm
18:51 75.6 °F /  24.2 °C 54 °F /  12.2 °C 30 in /  1015.8 hPa South 4 mph /  6.4 km/h 4 mph /  6.4 km/h 47 % 0 in /  0.0 mm
18:56 75.2 °F /  24.0 °C 53.6 °F /  12.0 °C 30 in /  1015.8 hPa ESE 5.8 mph /  9.3 km/h 5.8 mph /  9.3 km/h 47 % 0 in /  0.0 mm
19:01 74.5 °F /  23.6 °C 53.4 °F /  11.9 °C 30 in /  1015.8 hPa WSW 6.9 mph /  11.1 km/h 6.9 mph /  11.1 km/h 48 % 0 in /  0.0 mm
19:06 74.1 °F /  23.4 °C 53.2 °F /  11.8 °C 30 in /  1015.8 hPa WSW 3.5 mph /  5.6 km/h 3.5 mph /  5.6 km/h 48 % 0 in /  0.0 mm
19:10 65.3 °F /  18.5 °C 57.2 °F /  14.0 °C 30.1 in /  1019.9 hPa NNE 1 mph /  1.6 km/h 1 mph /  1.6 km/h 75 % 0 in /  0.0 mm
19:11 73.9 °F /  23.3 °C 53.1 °F /  11.7 °C 30 in /  1015.8 hPa WSW 3.8 mph /  6.1 km/h 3.8 mph /  6.1 km/h 48 % 0 in /  0.0 mm
19:16 73.6 °F /  23.1 °C 53.2 °F /  11.8 °C 30 in /  1015.8 hPa SW 7.1 mph /  11.4 km/h 7.1 mph /  11.4 km/h 49 % 0 in /  0.0 mm
19:20 65.1 °F /  18.4 °C 57 °F /  13.9 °C 30.1 in /  1019.9 hPa NNE 1 mph /  1.6 km/h 1 mph /  1.6 km/h 75 % 0 in /  0.0 mm
19:21 72.9 °F /  22.7 °C 53.1 °F /  11.7 °C 30 in /  1016.8 hPa SW 8.1 mph /  13.0 km/h 8.1 mph /  13.0 km/h 50 % 0 in /  0.0 mm
19:26 72.5 °F /  22.5 °C 53.2 °F /  11.8 °C 30 in /  1016.8 hPa SSW 3.5 mph /  5.6 km/h 3.5 mph /  5.6 km/h 51 % 0 in /  0.0 mm
19:30 64.9 °F /  18.3 °C 57.2 °F /  14.0 °C 30.1 in /  1019.9 hPa Calm   1 mph /  1.6 km/h 76 % 0 in /  0.0 mm
19:31 72.3 °F /  22.4 °C 53.8 °F /  12.1 °C 30 in /  1016.8 hPa SSW 4.6 mph /  7.4 km/h 4.6 mph /  7.4 km/h 52 % 0 in /  0.0 mm
19:36 72.1 °F /  22.3 °C 53.4 °F /  11.9 °C 30 in /  1016.8 hPa South 6.9 mph /  11.1 km/h 6.9 mph /  11.1 km/h 52 % 0 in /  0.0 mm
19:40 64.8 °F /  18.2 °C 57 °F /  13.9 °C 30.1 in /  1019.9 hPa Calm     76 % 0 in /  0.0 mm
19:41 71.6 °F /  22.0 °C 53.6 °F /  12.0 °C 30 in /  1016.8 hPa SW 4.6 mph /  7.4 km/h 4.6 mph /  7.4 km/h 53 % 0 in /  0.0 mm
19:46 71.2 °F /  21.8 °C 53.8 °F /  12.1 °C 30 in /  1016.8 hPa SW 5.8 mph /  9.3 km/h 5.8 mph /  9.3 km/h 54 % 0 in /  0.0 mm
19:50 64.8 °F /  18.2 °C 57.4 °F /  14.1 °C 30.1 in /  1019.9 hPa Calm     77 % 0 in /  0.0 mm
19:51 71.1 °F /  21.7 °C 53.6 °F /  12.0 °C 30.1 in /  1017.8 hPa SW 4.6 mph /  7.4 km/h 4.6 mph /  7.4 km/h 54 % 0 in /  0.0 mm
19:56 70.7 °F /  21.5 °C 54.1 °F /  12.3 °C 30.1 in /  1017.8 hPa South 1.2 mph /  1.9 km/h   56 % 0 in /  0.0 mm
20:00 64.8 °F /  18.2 °C 57.4 °F /  14.1 °C 30.1 in /  1019.9 hPa Calm     77 % 0 in /  0.0 mm
20:01 70.7 °F /  21.5 °C 54.1 °F /  12.3 °C 30.1 in /  1017.8 hPa West 3.5 mph /  5.6 km/h 3.5 mph /  5.6 km/h 56 % 0 in /  0.0 mm
20:06 70.3 °F /  21.3 °C 54 °F /  12.2 °C 30.1 in /  1017.8 hPa SSW 3.5 mph /  5.6 km/h 3.5 mph /  5.6 km/h 56 % 0 in /  0.0 mm
20:10 64.8 °F /  18.2 °C 57.4 °F /  14.1 °C 30.1 in /  1019.9 hPa Calm     77 % 0 in /  0.0 mm
20:11 70 °F /  21.1 °C 53.6 °F /  12.0 °C 30.1 in /  1017.8 hPa WSW 2.6 mph /  4.2 km/h 2.6 mph /  4.2 km/h 56 % 0 in /  0.0 mm
20:16 69.8 °F /  21.0 °C 53.4 °F /  11.9 °C 30.1 in /  1017.8 hPa SSW 3.5 mph /  5.6 km/h 3.5 mph /  5.6 km/h 56 % 0 in /  0.0 mm
20:20 64.9 °F /  18.3 °C 57.6 °F /  14.2 °C 30.1 in /  1019.9 hPa Calm     77 % 0 in /  0.0 mm
20:21 69.6 °F /  20.9 °C 54.1 °F /  12.3 °C 30.1 in /  1017.8 hPa Calm     58 % 0 in /  0.0 mm
20:26 69.4 °F /  20.8 °C 54 °F /  12.2 °C 30.1 in /  1017.8 hPa WSW 3.5 mph /  5.6 km/h 3.5 mph /  5.6 km/h 58 % 0 in /  0.0 mm
20:30 65.1 °F /  18.4 °C 57.7 °F /  14.3 °C 30.1 in /  1019.9 hPa Calm   1 mph /  1.6 km/h 77 % 0 in /  0.0 mm
20:31 69.3 °F /  20.7 °C 53.8 °F /  12.1 °C 30.1 in /  1017.8 hPa WSW 2.3 mph /  3.7 km/h 2.3 mph /  3.7 km/h 58 % 0 in /  0.0 mm
20:36 69.1 °F /  20.6 °C 53.8 °F /  12.1 °C 30.1 in /  1017.8 hPa West 2.3 mph /  3.7 km/h 2.3 mph /  3.7 km/h 58 % 0 in /  0.0 mm
20:40 65.3 °F /  18.5 °C 57.9 °F /  14.4 °C 30.1 in /  1019.9 hPa Calm     77 % 0 in /  0.0 mm
20:41 68.9 °F /  20.5 °C 54 °F /  12.2 °C 30.1 in /  1017.8 hPa SW 2.3 mph /  3.7 km/h 2.3 mph /  3.7 km/h 59 % 0 in /  0.0 mm
20:46 68.7 °F /  20.4 °C 53.8 °F /  12.1 °C 30.1 in /  1017.8 hPa SW 1.2 mph /  1.9 km/h 1.2 mph /  1.9 km/h 59 % 0 in /  0.0 mm
20:50 65.3 °F /  18.5 °C 58.3 °F /  14.6 °C 30.1 in /  1019.9 hPa Calm   2 mph /  3.2 km/h 78 % 0 in /  0.0 mm
20:51 68.5 °F /  20.3 °C 54.1 °F /  12.3 °C 30.1 in /  1017.8 hPa SW 1.2 mph /  1.9 km/h 1.2 mph /  1.9 km/h 60 % 0 in /  0.0 mm
20:56 68.4 °F /  20.2 °C 54.3 °F /  12.4 °C 30.1 in /  1017.8 hPa Calm     61 % 0 in /  0.0 mm
21:00 65.1 °F /  18.4 °C 58.1 °F /  14.5 °C 30.1 in /  1019.9 hPa NNE 2 mph /  3.2 km/h 2 mph /  3.2 km/h 78 % 0 in /  0.0 mm
21:01 68.2 °F /  20.1 °C 54.1 °F /  12.3 °C 30.1 in /  1017.8 hPa WSW 1.2 mph /  1.9 km/h   61 % 0 in /  0.0 mm
21:06 68.2 °F /  20.1 °C 54.7 °F /  12.6 °C 30.1 in /  1018.8 hPa WSW 1.2 mph /  1.9 km/h   62 % 0 in /  0.0 mm
21:10 64.9 °F /  18.3 °C 57.9 °F /  14.4 °C 30.1 in /  1019.9 hPa NE 1 mph /  1.6 km/h 2 mph /  3.2 km/h 78 % 0 in /  0.0 mm
21:11 68 °F /  20.0 °C 54.5 °F /  12.5 °C 30.1 in /  1018.8 hPa Calm     62 % 0 in /  0.0 mm
21:16 67.8 °F /  19.9 °C 55.2 °F /  12.9 °C 30.1 in /  1018.8 hPa Calm     64 % 0 in /  0.0 mm
21:20 64.6 °F /  18.1 °C 57.6 °F /  14.2 °C 30.1 in /  1019.9 hPa Calm   1 mph /  1.6 km/h 78 % 0 in /  0.0 mm
21:21 67.8 °F /  19.9 °C 55.2 °F /  12.9 °C 30.1 in /  1018.8 hPa Calm     64 % 0 in /  0.0 mm
21:26 67.8 °F /  19.9 °C 55.6 °F /  13.1 °C 30.1 in /  1018.8 hPa South 0.9 mph /  1.4 km/h   65 % 0 in /  0.0 mm
21:30 64.2 °F /  17.9 °C 57.2 °F /  14.0 °C 30.1 in /  1019.9 hPa Calm     78 % 0 in /  0.0 mm
21:31 67.6 °F /  19.8 °C 55.6 °F /  13.1 °C 30.1 in /  1018.8 hPa Calm     65 % 0 in /  0.0 mm
21:36 67.6 °F /  19.8 °C 55.6 °F /  13.1 °C 30.1 in /  1018.8 hPa SSW 1.2 mph /  1.9 km/h 1.2 mph /  1.9 km/h 65 % 0 in /  0.0 mm
21:40 63.9 °F /  17.7 °C 56.8 °F /  13.8 °C 30.1 in /  1019.9 hPa Calm     78 % 0 in /  0.0 mm
21:41 67.5 °F /  19.7 °C 55.8 °F /  13.2 °C 30.1 in /  1018.8 hPa Calm     66 % 0 in /  0.0 mm
21:46 67.3 °F /  19.6 °C 55.6 °F /  13.1 °C 30.1 in /  1018.8 hPa Calm     66 % 0 in /  0.0 mm
21:50 63.7 °F /  17.6 °C 57 °F /  13.9 °C 30.1 in /  1019.9 hPa Calm     79 % 0 in /  0.0 mm
21:51 67.3 °F /  19.6 °C 55.9 °F /  13.3 °C 30.1 in /  1018.8 hPa Calm     67 % 0 in /  0.0 mm
21:56 67.1 °F /  19.5 °C 55.8 °F /  13.2 °C 30.1 in /  1018.8 hPa Calm     67 % 0 in /  0.0 mm
22:00 63.7 °F /  17.6 °C 57 °F /  13.9 °C 30.1 in /  1019.9 hPa Calm     79 % 0 in /  0.0 mm
22:01 67.1 °F /  19.5 °C 56.1 °F /  13.4 °C 30.1 in /  1018.8 hPa ESE 1.2 mph /  1.9 km/h   68 % 0 in /  0.0 mm
22:06 67.1 °F /  19.5 °C 56.7 °F /  13.7 °C 30.1 in /  1018.8 hPa ESE 1.2 mph /  1.9 km/h   69 % 0 in /  0.0 mm
22:10 63.5 °F /  17.5 °C 56.8 °F /  13.8 °C 30.1 in /  1019.9 hPa Calm     79 % 0 in /  0.0 mm
22:11 66.9 °F /  19.4 °C 55.9 °F /  13.3 °C 30.1 in /  1018.8 hPa Calm     68 % 0 in /  0.0 mm
22:16 66.7 °F /  19.3 °C 56.1 °F /  13.4 °C 30.1 in /  1018.8 hPa Calm     69 % 0 in /  0.0 mm
22:20 63.3 °F /  17.4 °C 57 °F /  13.9 °C 30.1 in /  1019.9 hPa Calm     80 % 0 in /  0.0 mm
22:21 66.7 °F /  19.3 °C 56.1 °F /  13.4 °C 30.1 in /  1018.8 hPa Calm     69 % 0 in /  0.0 mm
22:26 66.6 °F /  19.2 °C 56.1 °F /  13.4 °C 30.1 in /  1018.8 hPa Calm     69 % 0 in /  0.0 mm
22:30 63.3 °F /  17.4 °C 57 °F /  13.9 °C 30.1 in /  1019.9 hPa SSW 1 mph /  1.6 km/h 1 mph /  1.6 km/h 80 % 0 in /  0.0 mm
22:31 66.6 °F /  19.2 °C 56.1 °F /  13.4 °C 30.1 in /  1018.8 hPa Calm     69 % 0 in /  0.0 mm
22:36 66.6 °F /  19.2 °C 56.1 °F /  13.4 °C 30.1 in /  1019.9 hPa South 1.4 mph /  2.3 km/h 1.4 mph /  2.3 km/h 69 % 0 in /  0.0 mm
22:40 63.3 °F /  17.4 °C 57.4 °F /  14.1 °C 30.1 in /  1019.9 hPa SSE 1 mph /  1.6 km/h 1 mph /  1.6 km/h 81 % 0 in /  0.0 mm
22:41 66.6 °F /  19.2 °C 56.5 °F /  13.6 °C 30.1 in /  1019.9 hPa Calm     70 % 0 in /  0.0 mm
22:46 66.4 °F /  19.1 °C 56.3 °F /  13.5 °C 30.1 in /  1019.9 hPa Calm     70 % 0 in /  0.0 mm
22:50 63.1 °F /  17.3 °C 57.2 °F /  14.0 °C 30.1 in /  1019.9 hPa ESE 1 mph /  1.6 km/h 2 mph /  3.2 km/h 81 % 0 in /  0.0 mm
22:51 66.4 °F /  19.1 °C 56.7 °F /  13.7 °C 30.1 in /  1019.9 hPa Calm     71 % 0 in /  0.0 mm
22:56 66.4 °F /  19.1 °C 56.7 °F /  13.7 °C 30.1 in /  1019.9 hPa Calm     71 % 0 in /  0.0 mm
23:00 63 °F /  17.2 °C 57 °F /  13.9 °C 30.1 in /  1019.9 hPa Calm   2 mph /  3.2 km/h 81 % 0 in /  0.0 mm
23:01 66.4 °F /  19.1 °C 56.7 °F /  13.7 °C 30.1 in /  1019.9 hPa Calm     71 % 0 in /  0.0 mm
23:06 66.4 °F /  19.1 °C 56.7 °F /  13.7 °C 30.1 in /  1018.8 hPa Calm     71 % 0 in /  0.0 mm
23:10 62.6 °F /  17.0 °C 57 °F /  13.9 °C 30.2 in /  1020.9 hPa Calm   1 mph /  1.6 km/h 82 % 0 in /  0.0 mm
23:11 66.4 °F /  19.1 °C 56.7 °F /  13.7 °C 30.1 in /  1018.8 hPa Calm     71 % 0 in /  0.0 mm
23:16 66.2 °F /  19.0 °C 56.8 °F /  13.8 °C 30.1 in /  1018.8 hPa ESE 1.2 mph /  1.9 km/h   72 % 0 in /  0.0 mm
23:20 62.4 °F /  16.9 °C 56.8 °F /  13.8 °C 30.2 in /  1020.9 hPa Calm   1 mph /  1.6 km/h 82 % 0 in /  0.0 mm
23:21 66.2 °F /  19.0 °C 56.8 °F /  13.8 °C 30.1 in /  1019.9 hPa ENE 1.6 mph /  2.6 km/h   72 % 0 in /  0.0 mm
23:26 66 °F /  18.9 °C 57 °F /  13.9 °C 30.1 in /  1019.9 hPa ENE 2.3 mph /  3.7 km/h 2.3 mph /  3.7 km/h 73 % 0 in /  0.0 mm
23:30 62.4 °F /  16.9 °C 56.8 °F /  13.8 °C 30.1 in /  1019.9 hPa Calm   1 mph /  1.6 km/h 82 % 0 in /  0.0 mm
23:31 65.8 °F /  18.8 °C 56.8 °F /  13.8 °C 30.1 in /  1019.9 hPa NNE 1.2 mph /  1.9 km/h 1.2 mph /  1.9 km/h 73 % 0 in /  0.0 mm
23:36 65.8 °F /  18.8 °C 56.8 °F /  13.8 °C 30.1 in /  1019.9 hPa NNE 2.3 mph /  3.7 km/h   73 % 0 in /  0.0 mm
23:40 62.2 °F /  16.8 °C 57 °F /  13.9 °C 30.1 in /  1019.9 hPa Calm     83 % 0 in /  0.0 mm
23:41 65.7 °F /  18.7 °C 56.8 °F /  13.8 °C 30.1 in /  1019.9 hPa Calm     73 % 0 in /  0.0 mm
23:46 65.5 °F /  18.6 °C 57 °F /  13.9 °C 30.1 in /  1019.9 hPa Calm     74 % 0 in /  0.0 mm
23:50 62.2 °F /  16.8 °C 57 °F /  13.9 °C 30.1 in /  1019.9 hPa NNW 2 mph /  3.2 km/h 3 mph /  4.8 km/h 83 % 0 in /  0.0 mm
23:51 65.3 °F /  18.5 °C 56.8 °F /  13.8 °C 30.1 in /  1019.9 hPa Calm     74 % 0 in /  0.0 mm
23:56 65.3 °F /  18.5 °C 56.8 °F /  13.8 °C 30.1 in /  1019.9 hPa NNE 2.3 mph /  3.7 km/h 2.3 mph /  3.7 km/h 74 % 0 in /  0.0 mm
Meteo Sesrovires
Elogis d' Weather Underground - 3.75 mb

Guio original per  Jim McMurry - jmcmurry@mwt.net Adaptat per a la plantilla per  Wim van der Kuil - Leuven-Template.eu

Trobareu la nostra informacio del temps tambe a:

Weather Underground

AWEKAS